Terminal Aerodrome Forecast
Issued by NWS

Home | Current Version | Previous Version | Text Only | Print | Product List | Glossary On
Versions: 1 2 3 4 5 6 7 8 9 10 11 12 13 14 15 16 17 18 19 20 21 22 23
000
FTUS42 KGSP 171139
TAFGMU
TAF
KGMU 171139Z 1712/1812 VRB02KT 2SM BR OVC002
      TEMPO 1712/1715 1SM BR
     FM171600 22006KT P6SM OVC003
     FM171800 22008KT P6SM OVC015
     FM172000 23008KT P6SM OVC045
     FM180500 22006KT P6SM BKN020=

USA.gov is the U.S. government's official web portal to all federal, state and local government web resources and services.